N12378 KCRQ-KONT
Flight info
| Callsign | N12378 |
|---|---|
| Flight time | 0h 28m |
| Altitude | 6000 |
| Route | ROBNN TANNR HDF PETIS |
| Aircraft | C208/L-V/N |
Departure
| Time | 2026-04-22 05:18 |
|---|---|
| Airport | McClellan-Palomar Airport (KCRQ) |
Arrival
| Time | 2026-04-22 05:46 |
|---|---|
| Airport | Ontario International Airport (KONT) |
| Time | Latitude | Longitude | Altitude | Speed | Heading |
|---|---|---|---|---|---|
| 2026-04-22 05:05 | 33.12714 | -117.27989 | 326 ft | 0 kts | 90° |
| 2026-04-22 05:13 | 33.12717 | -117.27977 | 334 ft | 8 kts | 53° |
| 2026-04-22 05:13 | 33.12753 | -117.27929 | 333 ft | 9 kts | 66° |
| 2026-04-22 05:14 | 33.12772 | -117.27826 | 336 ft | 15 kts | 80° |
| 2026-04-22 05:14 | 33.12798 | -117.27667 | 334 ft | 24 kts | 79° |
| 2026-04-22 05:14 | 33.12831 | -117.27467 | 335 ft | 27 kts | 78° |
| 2026-04-22 05:14 | 33.12850 | -117.27337 | 335 ft | 0 kts | 78° |
| 2026-04-22 05:15 | 33.12858 | -117.27303 | 334 ft | 3 kts | 69° |
| 2026-04-22 05:15 | 33.12860 | -117.27298 | 335 ft | 0 kts | 62° |
| 2026-04-22 05:17 | 33.12867 | -117.27287 | 334 ft | 2 kts | 46° |
| 2026-04-22 05:17 | 33.12936 | -117.27316 | 334 ft | 18 kts | 276° |
| 2026-04-22 05:17 | 33.12870 | -117.27842 | 382 ft | 97 kts | 259° |
| 2026-04-22 05:17 | 33.12684 | -117.28719 | 632 ft | 121 kts | 255° |
| 2026-04-22 05:18 | 33.12141 | -117.30810 | 1335 ft | 132 kts | 254° |
| 2026-04-22 05:18 | 33.11868 | -117.31830 | 1844 ft | 126 kts | 253° |
| 2026-04-22 05:18 | 33.11561 | -117.32797 | 2339 ft | 123 kts | 251° |
| 2026-04-22 05:19 | 33.11600 | -117.33753 | 2831 ft | 119 kts | 307° |
| 2026-04-22 05:19 | 33.12345 | -117.34041 | 3335 ft | 120 kts | 11° |
| 2026-04-22 05:19 | 33.13149 | -117.33813 | 3823 ft | 118 kts | 7° |
| 2026-04-22 05:19 | 33.13942 | -117.33645 | 4316 ft | 118 kts | 9° |
| 2026-04-22 05:20 | 33.14749 | -117.33454 | 4818 ft | 118 kts | 8° |
| 2026-04-22 05:20 | 33.15550 | -117.33264 | 5302 ft | 117 kts | 8° |
| 2026-04-22 05:20 | 33.16351 | -117.33076 | 5785 ft | 117 kts | 8° |
| 2026-04-22 05:20 | 33.17154 | -117.32888 | 6249 ft | 121 kts | 8° |
| 2026-04-22 05:21 | 33.17996 | -117.32689 | 6652 ft | 125 kts | 8° |
| 2026-04-22 05:21 | 33.18867 | -117.32484 | 7034 ft | 129 kts | 8° |
| 2026-04-22 05:21 | 33.19761 | -117.32275 | 7417 ft | 132 kts | 8° |
| 2026-04-22 05:21 | 33.20669 | -117.32059 | 7803 ft | 134 kts | 7° |
| 2026-04-22 05:22 | 33.21593 | -117.31841 | 8195 ft | 137 kts | 8° |
| 2026-04-22 05:22 | 33.22534 | -117.31620 | 8591 ft | 139 kts | 8° |
| 2026-04-22 05:22 | 33.23474 | -117.31397 | 8986 ft | 140 kts | 7° |
| 2026-04-22 05:22 | 33.24435 | -117.31171 | 9390 ft | 141 kts | 7° |
| 2026-04-22 05:23 | 33.25404 | -117.30943 | 9802 ft | 142 kts | 7° |
| 2026-04-22 05:23 | 33.26416 | -117.30705 | 10013 ft | 160 kts | 7° |
| 2026-04-22 05:23 | 33.27569 | -117.30437 | 10023 ft | 176 kts | 7° |
| 2026-04-22 05:23 | 33.28805 | -117.30147 | 10021 ft | 185 kts | 8° |
| 2026-04-22 05:24 | 33.30088 | -117.29841 | 10022 ft | 190 kts | 8° |
| 2026-04-22 05:24 | 33.31399 | -117.29530 | 10021 ft | 193 kts | 8° |
| 2026-04-22 05:24 | 33.32722 | -117.29215 | 10021 ft | 194 kts | 8° |
| 2026-04-22 05:24 | 33.34051 | -117.28901 | 10019 ft | 195 kts | 8° |
| 2026-04-22 05:25 | 33.35368 | -117.28589 | 10012 ft | 196 kts | 8° |
| 2026-04-22 05:25 | 33.36704 | -117.28272 | 10019 ft | 196 kts | 8° |
| 2026-04-22 05:25 | 33.38041 | -117.27956 | 10018 ft | 196 kts | 8° |
| 2026-04-22 05:25 | 33.39383 | -117.27638 | 10011 ft | 196 kts | 8° |
| 2026-04-22 05:26 | 33.40721 | -117.27319 | 10011 ft | 196 kts | 8° |
| 2026-04-22 05:26 | 33.42060 | -117.27004 | 10009 ft | 196 kts | 8° |
| 2026-04-22 05:26 | 33.43401 | -117.26685 | 10006 ft | 196 kts | 8° |
| 2026-04-22 05:26 | 33.44735 | -117.26368 | 10007 ft | 195 kts | 8° |
| 2026-04-22 05:27 | 33.46069 | -117.26052 | 9999 ft | 196 kts | 8° |
| 2026-04-22 05:27 | 33.46952 | -117.25841 | 9996 ft | 195 kts | 8° |
| 2026-04-22 05:27 | 33.48289 | -117.25524 | 10001 ft | 196 kts | 7° |
| 2026-04-22 05:27 | 33.49627 | -117.25208 | 10000 ft | 197 kts | 7° |
| 2026-04-22 05:28 | 33.50972 | -117.24887 | 9997 ft | 197 kts | 7° |
| 2026-04-22 05:28 | 33.52317 | -117.24567 | 9989 ft | 197 kts | 7° |
| 2026-04-22 05:28 | 33.54099 | -117.24144 | 9987 ft | 197 kts | 8° |
| 2026-04-22 05:28 | 33.55003 | -117.23929 | 9989 ft | 196 kts | 7° |
| 2026-04-22 05:29 | 33.56339 | -117.23609 | 9990 ft | 196 kts | 7° |
| 2026-04-22 05:29 | 33.57680 | -117.23291 | 9991 ft | 196 kts | 7° |
| 2026-04-22 05:29 | 33.59022 | -117.22972 | 9995 ft | 197 kts | 7° |
| 2026-04-22 05:29 | 33.60366 | -117.22653 | 9994 ft | 197 kts | 7° |
| 2026-04-22 05:30 | 33.61712 | -117.22333 | 9995 ft | 198 kts | 7° |
| 2026-04-22 05:30 | 33.63058 | -117.22011 | 9994 ft | 197 kts | 7° |
| 2026-04-22 05:30 | 33.64386 | -117.21694 | 9997 ft | 197 kts | 7° |
| 2026-04-22 05:30 | 33.65729 | -117.21375 | 9997 ft | 196 kts | 7° |
| 2026-04-22 05:31 | 33.67067 | -117.21055 | 9997 ft | 196 kts | 7° |
| 2026-04-22 05:31 | 33.68409 | -117.20736 | 10000 ft | 196 kts | 7° |
| 2026-04-22 05:31 | 33.69749 | -117.20416 | 10004 ft | 197 kts | 7° |
| 2026-04-22 05:31 | 33.71093 | -117.20096 | 10006 ft | 197 kts | 7° |
| 2026-04-22 05:32 | 33.72433 | -117.19774 | 10007 ft | 196 kts | 7° |
| 2026-04-22 05:32 | 33.73781 | -117.19494 | 10008 ft | 197 kts | 3° |
| 2026-04-22 05:32 | 33.75142 | -117.19296 | 9986 ft | 197 kts | 2° |
| 2026-04-22 05:32 | 33.76505 | -117.19078 | 9987 ft | 198 kts | 3° |
| 2026-04-22 05:33 | 33.77873 | -117.18845 | 9987 ft | 198 kts | 3° |
| 2026-04-22 05:33 | 33.79241 | -117.18613 | 9988 ft | 198 kts | 3° |
| 2026-04-22 05:33 | 33.80609 | -117.18380 | 9991 ft | 199 kts | 3° |
| 2026-04-22 05:33 | 33.81978 | -117.18149 | 9992 ft | 199 kts | 3° |
| 2026-04-22 05:34 | 33.83334 | -117.17919 | 9994 ft | 199 kts | 3° |
| 2026-04-22 05:34 | 33.84708 | -117.17685 | 9989 ft | 199 kts | 3° |
| 2026-04-22 05:34 | 33.86080 | -117.17453 | 9987 ft | 199 kts | 3° |
| 2026-04-22 05:34 | 33.87449 | -117.17220 | 9993 ft | 199 kts | 3° |
| 2026-04-22 05:35 | 33.88816 | -117.16989 | 9993 ft | 198 kts | 3° |
| 2026-04-22 05:35 | 33.90177 | -117.16756 | 9986 ft | 197 kts | 3° |
| 2026-04-22 05:35 | 33.91575 | -117.16540 | 9697 ft | 206 kts | 358° |
| 2026-04-22 05:35 | 33.92972 | -117.16790 | 9205 ft | 199 kts | 335° |
| 2026-04-22 05:36 | 33.94163 | -117.17549 | 8707 ft | 190 kts | 316° |
| 2026-04-22 05:36 | 33.95057 | -117.18674 | 8211 ft | 184 kts | 303° |
| 2026-04-22 05:36 | 33.95851 | -117.19871 | 7723 ft | 183 kts | 305° |
| 2026-04-22 05:36 | 33.96656 | -117.21053 | 7236 ft | 182 kts | 305° |
| 2026-04-22 05:37 | 33.97453 | -117.22238 | 6766 ft | 182 kts | 306° |
| 2026-04-22 05:37 | 33.98255 | -117.23425 | 6273 ft | 182 kts | 306° |
| 2026-04-22 05:37 | 33.99051 | -117.24610 | 5798 ft | 182 kts | 306° |
| 2026-04-22 05:37 | 33.99842 | -117.25781 | 5303 ft | 179 kts | 307° |
| 2026-04-22 05:38 | 34.00616 | -117.26924 | 5019 ft | 169 kts | 308° |
| 2026-04-22 05:38 | 34.01357 | -117.28008 | 5019 ft | 168 kts | 306° |
| 2026-04-22 05:38 | 34.02088 | -117.29111 | 5021 ft | 169 kts | 306° |
| 2026-04-22 05:38 | 34.02828 | -117.30210 | 5023 ft | 169 kts | 306° |
| 2026-04-22 05:39 | 34.03571 | -117.31317 | 5023 ft | 170 kts | 306° |
| 2026-04-22 05:39 | 34.04317 | -117.32425 | 5024 ft | 170 kts | 306° |
| 2026-04-22 05:39 | 34.05047 | -117.33537 | 4986 ft | 169 kts | 302° |
| 2026-04-22 05:39 | 34.05452 | -117.34852 | 4617 ft | 168 kts | 276° |
| 2026-04-22 05:40 | 34.05486 | -117.36205 | 4255 ft | 154 kts | 268° |
| 2026-04-22 05:40 | 34.05489 | -117.37462 | 3869 ft | 146 kts | 269° |
| 2026-04-22 05:40 | 34.05489 | -117.38629 | 3509 ft | 141 kts | 269° |
| 2026-04-22 05:40 | 34.05488 | -117.39889 | 3169 ft | 163 kts | 268° |
| 2026-04-22 05:41 | 34.05488 | -117.41191 | 3004 ft | 145 kts | 270° |
| 2026-04-22 05:41 | 34.05494 | -117.42301 | 3010 ft | 122 kts | 269° |
| 2026-04-22 05:41 | 34.05494 | -117.43328 | 2972 ft | 124 kts | 269° |
| 2026-04-22 05:41 | 34.05494 | -117.44359 | 2986 ft | 122 kts | 269° |
| 2026-04-22 05:42 | 34.05495 | -117.45378 | 2990 ft | 122 kts | 269° |
| 2026-04-22 05:42 | 34.05496 | -117.46389 | 2955 ft | 115 kts | 269° |
| 2026-04-22 05:42 | 34.05496 | -117.47349 | 2802 ft | 112 kts | 269° |
| 2026-04-22 05:42 | 34.05498 | -117.48280 | 2642 ft | 110 kts | 269° |
| 2026-04-22 05:43 | 34.05496 | -117.49204 | 2485 ft | 109 kts | 269° |
| 2026-04-22 05:43 | 34.05497 | -117.50124 | 2334 ft | 109 kts | 268° |
| 2026-04-22 05:43 | 34.05497 | -117.51037 | 2182 ft | 109 kts | 268° |
| 2026-04-22 05:43 | 34.05501 | -117.51943 | 2035 ft | 107 kts | 269° |
| 2026-04-22 05:44 | 34.05497 | -117.52848 | 1877 ft | 108 kts | 269° |
| 2026-04-22 05:44 | 34.05498 | -117.53748 | 1720 ft | 107 kts | 268° |
| 2026-04-22 05:44 | 34.05499 | -117.54639 | 1564 ft | 105 kts | 268° |
| 2026-04-22 05:44 | 34.05499 | -117.55517 | 1417 ft | 104 kts | 268° |
| 2026-04-22 05:45 | 34.05500 | -117.56388 | 1274 ft | 104 kts | 269° |
| 2026-04-22 05:45 | 34.05500 | -117.57252 | 1123 ft | 104 kts | 269° |
| 2026-04-22 05:45 | 34.05497 | -117.58113 | 999 ft | 98 kts | 270° |
| 2026-04-22 05:45 | 34.05496 | -117.58865 | 937 ft | 79 kts | 270° |
| 2026-04-22 05:46 | 34.05499 | -117.59437 | 931 ft | 59 kts | 270° |
| 2026-04-22 05:46 | 34.05500 | -117.59886 | 932 ft | 52 kts | 269° |
| 2026-04-22 05:46 | 34.05461 | -117.60203 | 934 ft | 21 kts | 222° |
| 2026-04-22 05:46 | 34.05408 | -117.60228 | 933 ft | 0 kts | 160° |